sensor_id;sensor_type;location;lat;lon;timestamp;P1;durP1;ratioP1;P2;durP2;ratioP2
74945;SDS011;63509;45.250;38.102;2023-03-30T00:00:41;2.90;;;1.63;;
74945;SDS011;63509;45.250;38.102;2023-03-30T00:03:07;3.85;;;1.90;;
74945;SDS011;63509;45.250;38.102;2023-03-30T00:05:34;3.67;;;1.60;;
74945;SDS011;63509;45.250;38.102;2023-03-30T00:08:01;9.45;;;1.98;;
74945;SDS011;63509;45.250;38.102;2023-03-30T00:10:27;9.15;;;1.42;;
74945;SDS011;63509;45.250;38.102;2023-03-30T00:12:53;4.70;;;2.10;;
74945;SDS011;63509;45.250;38.102;2023-03-30T00:15:22;6.45;;;2.65;;
74945;SDS011;63509;45.250;38.102;2023-03-30T00:17:49;2.92;;;1.50;;
74945;SDS011;63509;45.250;38.102;2023-03-30T00:20:19;3.00;;;1.85;;
74945;SDS011;63509;45.250;38.102;2023-03-30T00:22:46;4.28;;;1.52;;
74945;SDS011;63509;45.250;38.102;2023-03-30T00:25:13;5.05;;;2.17;;
74945;SDS011;63509;45.250;38.102;2023-03-30T00:27:41;3.10;;;1.52;;
74945;SDS011;63509;45.250;38.102;2023-03-30T00:30:10;4.47;;;2.63;;
74945;SDS011;63509;45.250;38.102;2023-03-30T00:32:43;4.72;;;2.45;;
74945;SDS011;63509;45.250;38.102;2023-03-30T00:35:10;3.50;;;1.70;;
74945;SDS011;63509;45.250;38.102;2023-03-30T00:37:37;4.05;;;2.40;;
74945;SDS011;63509;45.250;38.102;2023-03-30T00:40:04;5.93;;;2.10;;
74945;SDS011;63509;45.250;38.102;2023-03-30T00:42:35;4.90;;;1.98;;
74945;SDS011;63509;45.250;38.102;2023-03-30T00:47:44;7.57;;;2.20;;
74945;SDS011;63509;45.250;38.102;2023-03-30T00:50:17;5.43;;;2.35;;
74945;SDS011;63509;45.250;38.102;2023-03-30T00:52:46;4.32;;;2.42;;
74945;SDS011;63509;45.250;38.102;2023-03-30T00:55:16;3.53;;;2.20;;
74945;SDS011;63509;45.250;38.102;2023-03-30T00:57:44;4.72;;;2.15;;
74945;SDS011;63509;45.250;38.102;2023-03-30T01:00:12;6.57;;;2.10;;
74945;SDS011;63509;45.250;38.102;2023-03-30T01:02:41;5.78;;;2.30;;
74945;SDS011;63509;45.250;38.102;2023-03-30T01:05:10;5.03;;;2.10;;
74945;SDS011;63509;45.250;38.102;2023-03-30T01:07:37;4.55;;;2.50;;
74945;SDS011;63509;45.250;38.102;2023-03-30T01:10:05;4.47;;;2.50;;
74945;SDS011;63509;45.250;38.102;2023-03-30T01:12:33;3.80;;;2.25;;
74945;SDS011;63509;45.250;38.102;2023-03-30T01:14:59;6.10;;;3.15;;
74945;SDS011;63509;45.250;38.102;2023-03-30T01:18:14;5.50;;;2.88;;
74945;SDS011;63509;45.250;38.102;2023-03-30T01:23:22;6.18;;;3.40;;
74945;SDS011;63509;45.250;38.102;2023-03-30T01:29:39;4.60;;;2.58;;
74945;SDS011;63509;45.250;38.102;2023-03-30T01:34:42;6.05;;;2.38;;
74945;SDS011;63509;45.250;38.102;2023-03-30T01:40:28;9.25;;;3.30;;
74945;SDS011;63509;45.250;38.102;2023-03-30T01:43:14;5.03;;;2.95;;
74945;SDS011;63509;45.250;38.102;2023-03-30T01:45:47;5.20;;;3.17;;
74945;SDS011;63509;45.250;38.102;2023-03-30T01:48:45;4.20;;;2.47;;
74945;SDS011;63509;45.250;38.102;2023-03-30T01:51:20;5.93;;;2.65;;
74945;SDS011;63509;45.250;38.102;2023-03-30T01:53:52;6.95;;;2.75;;
74945;SDS011;63509;45.250;38.102;2023-03-30T01:56:41;4.90;;;2.53;;
74945;SDS011;63509;45.250;38.102;2023-03-30T01:59:19;7.72;;;2.50;;
74945;SDS011;63509;45.250;38.102;2023-03-30T02:01:50;5.15;;;2.70;;
74945;SDS011;63509;45.250;38.102;2023-03-30T02:04:24;4.22;;;2.38;;
74945;SDS011;63509;45.250;38.102;2023-03-30T02:06:58;4.45;;;1.95;;
74945;SDS011;63509;45.250;38.102;2023-03-30T02:09:28;6.22;;;2.38;;
74945;SDS011;63509;45.250;38.102;2023-03-30T02:11:56;3.97;;;1.83;;
74945;SDS011;63509;45.250;38.102;2023-03-30T02:14:25;6.75;;;2.20;;
74945;SDS011;63509;45.250;38.102;2023-03-30T02:17:00;4.93;;;2.00;;
74945;SDS011;63509;45.250;38.102;2023-03-30T02:19:32;4.70;;;1.75;;
74945;SDS011;63509;45.250;38.102;2023-03-30T02:21:59;4.93;;;1.80;;
74945;SDS011;63509;45.250;38.102;2023-03-30T02:24:26;3.88;;;1.55;;
74945;SDS011;63509;45.250;38.102;2023-03-30T02:26:56;4.68;;;1.63;;
74945;SDS011;63509;45.250;38.102;2023-03-30T02:29:23;2.97;;;1.58;;
74945;SDS011;63509;45.250;38.102;2023-03-30T02:31:51;3.80;;;1.48;;
74945;SDS011;63509;45.250;38.102;2023-03-30T02:43:14;2.55;;;1.23;;
74945;SDS011;63509;45.250;38.102;2023-03-30T03:02:38;3.92;;;1.60;;
74945;SDS011;63509;45.250;38.102;2023-03-30T03:05:19;4.80;;;1.55;;
74945;SDS011;63509;45.250;38.102;2023-03-30T03:07:52;3.42;;;1.48;;
74945;SDS011;63509;45.250;38.102;2023-03-30T03:10:19;8.52;;;2.83;;
74945;SDS011;63509;45.250;38.102;2023-03-30T03:12:45;7.85;;;2.20;;
74945;SDS011;63509;45.250;38.102;2023-03-30T03:15:12;4.28;;;2.05;;
74945;SDS011;63509;45.250;38.102;2023-03-30T03:17:49;4.35;;;2.40;;
74945;SDS011;63509;45.250;38.102;2023-03-30T03:20:16;3.13;;;1.63;;
74945;SDS011;63509;45.250;38.102;2023-03-30T03:22:42;3.10;;;1.50;;
74945;SDS011;63509;45.250;38.102;2023-03-30T03:25:08;3.55;;;2.03;;
74945;SDS011;63509;45.250;38.102;2023-03-30T03:27:50;4.90;;;1.67;;
74945;SDS011;63509;45.250;38.102;2023-03-30T03:30:20;6.82;;;1.98;;
74945;SDS011;63509;45.250;38.102;2023-03-30T03:32:57;12.40;;;2.28;;
74945;SDS011;63509;45.250;38.102;2023-03-30T03:35:25;7.22;;;1.80;;
74945;SDS011;63509;45.250;38.102;2023-03-30T03:37:52;4.63;;;2.20;;
74945;SDS011;63509;45.250;38.102;2023-03-30T03:40:18;3.72;;;1.65;;
74945;SDS011;63509;45.250;38.102;2023-03-30T03:42:44;4.47;;;1.70;;
74945;SDS011;63509;45.250;38.102;2023-03-30T03:45:12;6.20;;;2.08;;
74945;SDS011;63509;45.250;38.102;2023-03-30T03:47:58;3.75;;;1.58;;
74945;SDS011;63509;45.250;38.102;2023-03-30T03:50:51;3.95;;;2.00;;
74945;SDS011;63509;45.250;38.102;2023-03-30T03:53:22;2.92;;;1.58;;
74945;SDS011;63509;45.250;38.102;2023-03-30T03:55:53;11.38;;;2.03;;
74945;SDS011;63509;45.250;38.102;2023-03-30T03:58:20;7.68;;;1.73;;
74945;SDS011;63509;45.250;38.102;2023-03-30T04:00:46;5.97;;;1.73;;
74945;SDS011;63509;45.250;38.102;2023-03-30T04:03:13;3.33;;;1.50;;
74945;SDS011;63509;45.250;38.102;2023-03-30T04:05:39;3.78;;;1.83;;
74945;SDS011;63509;45.250;38.102;2023-03-30T04:08:06;3.85;;;1.65;;
74945;SDS011;63509;45.250;38.102;2023-03-30T04:10:37;7.88;;;1.80;;
74945;SDS011;63509;45.250;38.102;2023-03-30T04:13:22;4.55;;;1.35;;
74945;SDS011;63509;45.250;38.102;2023-03-30T04:16:07;5.47;;;1.58;;
74945;SDS011;63509;45.250;38.102;2023-03-30T04:18:33;4.25;;;1.33;;
74945;SDS011;63509;45.250;38.102;2023-03-30T04:21:13;5.10;;;1.42;;
74945;SDS011;63509;45.250;38.102;2023-03-30T04:23:58;10.18;;;1.50;;
74945;SDS011;63509;45.250;38.102;2023-03-30T04:26:43;3.72;;;1.27;;
74945;SDS011;63509;45.250;38.102;2023-03-30T04:29:28;6.15;;;2.00;;
74945;SDS011;63509;45.250;38.102;2023-03-30T04:32:14;3.42;;;1.50;;
74945;SDS011;63509;45.250;38.102;2023-03-30T04:35:04;4.28;;;1.80;;
74945;SDS011;63509;45.250;38.102;2023-03-30T04:37:49;3.05;;;1.35;;
74945;SDS011;63509;45.250;38.102;2023-03-30T04:40:49;3.35;;;1.48;;
74945;SDS011;63509;45.250;38.102;2023-03-30T04:43:48;3.00;;;1.60;;
74945;SDS011;63509;45.250;38.102;2023-03-30T04:46:32;16.15;;;5.53;;
74945;SDS011;63509;45.250;38.102;2023-03-30T04:49:09;18.65;;;7.35;;
74945;SDS011;63509;45.250;38.102;2023-03-30T04:51:54;7.00;;;2.03;;
74945;SDS011;63509;45.250;38.102;2023-03-30T04:54:52;3.15;;;1.70;;
74945;SDS011;63509;45.250;38.102;2023-03-30T04:57:19;3.50;;;1.38;;
74945;SDS011;63509;45.250;38.102;2023-03-30T05:00:13;4.63;;;1.63;;
74945;SDS011;63509;45.250;38.102;2023-03-30T05:02:55;2.97;;;1.38;;
74945;SDS011;63509;45.250;38.102;2023-03-30T05:05:45;5.05;;;1.15;;
74945;SDS011;63509;45.250;38.102;2023-03-30T05:08:37;20.00;;;2.03;;
74945;SDS011;63509;45.250;38.102;2023-03-30T05:11:33;2.53;;;1.00;;
74945;SDS011;63509;45.250;38.102;2023-03-30T05:14:14;4.40;;;1.80;;
74945;SDS011;63509;45.250;38.102;2023-03-30T05:16:57;3.00;;;1.20;;
74945;SDS011;63509;45.250;38.102;2023-03-30T05:22:17;2.95;;;1.40;;
74945;SDS011;63509;45.250;38.102;2023-03-30T05:25:06;7.40;;;1.98;;
74945;SDS011;63509;45.250;38.102;2023-03-30T05:27:48;10.00;;;1.73;;
74945;SDS011;63509;45.250;38.102;2023-03-30T05:30:41;3.45;;;1.45;;
74945;SDS011;63509;45.250;38.102;2023-03-30T05:33:27;3.03;;;1.42;;
74945;SDS011;63509;45.250;38.102;2023-03-30T05:36:12;4.68;;;2.22;;
74945;SDS011;63509;45.250;38.102;2023-03-30T05:39:08;3.55;;;1.33;;
74945;SDS011;63509;45.250;38.102;2023-03-30T05:42:10;2.80;;;1.20;;
74945;SDS011;63509;45.250;38.102;2023-03-30T05:44:53;9.50;;;1.35;;
74945;SDS011;63509;45.250;38.102;2023-03-30T05:47:39;4.22;;;1.15;;
74945;SDS011;63509;45.250;38.102;2023-03-30T05:50:30;2.80;;;1.33;;
74945;SDS011;63509;45.250;38.102;2023-03-30T05:53:02;5.25;;;1.50;;
74945;SDS011;63509;45.250;38.102;2023-03-30T05:56:00;3.75;;;1.40;;
74945;SDS011;63509;45.250;38.102;2023-03-30T05:58:52;6.75;;;1.38;;
74945;SDS011;63509;45.250;38.102;2023-03-30T06:01:38;3.42;;;1.25;;
74945;SDS011;63509;45.250;38.102;2023-03-30T06:04:06;4.18;;;1.17;;
74945;SDS011;63509;45.250;38.102;2023-03-30T06:06:34;6.15;;;1.55;;
74945;SDS011;63509;45.250;38.102;2023-03-30T06:09:00;4.68;;;1.58;;
74945;SDS011;63509;45.250;38.102;2023-03-30T06:11:28;6.60;;;1.23;;
74945;SDS011;63509;45.250;38.102;2023-03-30T06:14:13;2.10;;;0.77;;
74945;SDS011;63509;45.250;38.102;2023-03-30T06:16:45;3.78;;;1.25;;
74945;SDS011;63509;45.250;38.102;2023-03-30T06:19:12;3.88;;;1.05;;
74945;SDS011;63509;45.250;38.102;2023-03-30T06:21:39;1.77;;;0.80;;
74945;SDS011;63509;45.250;38.102;2023-03-30T06:26:36;2.45;;;1.13;;
74945;SDS011;63509;45.250;38.102;2023-03-30T06:29:02;8.27;;;1.30;;
74945;SDS011;63509;45.250;38.102;2023-03-30T06:31:29;7.10;;;1.10;;
74945;SDS011;63509;45.250;38.102;2023-03-30T06:34:18;3.38;;;0.98;;
74945;SDS011;63509;45.250;38.102;2023-03-30T06:36:45;5.22;;;1.08;;
74945;SDS011;63509;45.250;38.102;2023-03-30T06:39:14;5.07;;;1.27;;
74945;SDS011;63509;45.250;38.102;2023-03-30T06:41:41;3.33;;;1.50;;
74945;SDS011;63509;45.250;38.102;2023-03-30T06:44:23;1.90;;;0.85;;
74945;SDS011;63509;45.250;38.102;2023-03-30T06:46:49;3.45;;;1.00;;
74945;SDS011;63509;45.250;38.102;2023-03-30T06:49:16;5.65;;;1.00;;
74945;SDS011;63509;45.250;38.102;2023-03-30T06:51:42;3.25;;;1.02;;
74945;SDS011;63509;45.250;38.102;2023-03-30T06:54:09;5.57;;;1.73;;
74945;SDS011;63509;45.250;38.102;2023-03-30T06:56:41;2.35;;;0.88;;
74945;SDS011;63509;45.250;38.102;2023-03-30T06:59:09;2.47;;;0.90;;
74945;SDS011;63509;45.250;38.102;2023-03-30T07:01:58;2.10;;;0.93;;
74945;SDS011;63509;45.250;38.102;2023-03-30T07:04:43;2.75;;;1.30;;
74945;SDS011;63509;45.250;38.102;2023-03-30T07:09:57;3.25;;;1.10;;
74945;SDS011;63509;45.250;38.102;2023-03-30T07:12:23;7.68;;;1.70;;
74945;SDS011;63509;45.250;38.102;2023-03-30T07:14:50;3.95;;;1.13;;
74945;SDS011;63509;45.250;38.102;2023-03-30T07:17:16;3.38;;;1.48;;
74945;SDS011;63509;45.250;38.102;2023-03-30T07:19:42;2.05;;;0.68;;
74945;SDS011;63509;45.250;38.102;2023-03-30T07:22:08;2.38;;;1.08;;
74945;SDS011;63509;45.250;38.102;2023-03-30T07:24:35;3.10;;;0.80;;
74945;SDS011;63509;45.250;38.102;2023-03-30T07:27:01;2.30;;;1.00;;
74945;SDS011;63509;45.250;38.102;2023-03-30T07:29:27;2.88;;;1.00;;
74945;SDS011;63509;45.250;38.102;2023-03-30T07:31:55;2.33;;;1.20;;
74945;SDS011;63509;45.250;38.102;2023-03-30T07:34:21;3.03;;;1.10;;
74945;SDS011;63509;45.250;38.102;2023-03-30T07:36:52;2.72;;;1.90;;
74945;SDS011;63509;45.250;38.102;2023-03-30T07:39:19;2.60;;;1.05;;
74945;SDS011;63509;45.250;38.102;2023-03-30T07:41:47;8.40;;;1.13;;
74945;SDS011;63509;45.250;38.102;2023-03-30T07:44:13;3.58;;;1.17;;
74945;SDS011;63509;45.250;38.102;2023-03-30T07:46:39;3.25;;;1.20;;
74945;SDS011;63509;45.250;38.102;2023-03-30T07:49:12;4.35;;;1.42;;
74945;SDS011;63509;45.250;38.102;2023-03-30T07:51:39;4.13;;;1.00;;
74945;SDS011;63509;45.250;38.102;2023-03-30T07:54:11;5.78;;;1.63;;
74945;SDS011;63509;45.250;38.102;2023-03-30T07:56:51;2.97;;;1.55;;
74945;SDS011;63509;45.250;38.102;2023-03-30T07:59:18;3.03;;;0.90;;
74945;SDS011;63509;45.250;38.102;2023-03-30T08:01:45;3.55;;;1.00;;
74945;SDS011;63509;45.250;38.102;2023-03-30T08:06:59;2.22;;;1.00;;
74945;SDS011;63509;45.250;38.102;2023-03-30T08:09:27;3.45;;;1.27;;
74945;SDS011;63509;45.250;38.102;2023-03-30T08:11:53;7.32;;;1.58;;
74945;SDS011;63509;45.250;38.102;2023-03-30T08:14:19;2.15;;;1.15;;
74945;SDS011;63509;45.250;38.102;2023-03-30T08:16:45;2.28;;;1.25;;
74945;SDS011;63509;45.250;38.102;2023-03-30T08:19:11;8.82;;;1.40;;
74945;SDS011;63509;45.250;38.102;2023-03-30T08:21:37;3.55;;;1.40;;
74945;SDS011;63509;45.250;38.102;2023-03-30T08:24:03;2.35;;;1.17;;
74945;SDS011;63509;45.250;38.102;2023-03-30T08:26:30;7.60;;;1.55;;
74945;SDS011;63509;45.250;38.102;2023-03-30T08:28:56;10.63;;;1.38;;
74945;SDS011;63509;45.250;38.102;2023-03-30T08:31:22;3.33;;;1.10;;
74945;SDS011;63509;45.250;38.102;2023-03-30T08:33:48;8.38;;;1.40;;
74945;SDS011;63509;45.250;38.102;2023-03-30T08:36:14;3.53;;;1.20;;
74945;SDS011;63509;45.250;38.102;2023-03-30T08:38:41;2.05;;;0.90;;
74945;SDS011;63509;45.250;38.102;2023-03-30T08:46:53;4.47;;;0.95;;
74945;SDS011;63509;45.250;38.102;2023-03-30T08:49:19;4.45;;;1.25;;
74945;SDS011;63509;45.250;38.102;2023-03-30T08:51:47;5.00;;;1.67;;
74945;SDS011;63509;45.250;38.102;2023-03-30T08:54:18;3.17;;;1.20;;
74945;SDS011;63509;45.250;38.102;2023-03-30T08:56:52;3.05;;;1.15;;
74945;SDS011;63509;45.250;38.102;2023-03-30T08:59:25;2.70;;;1.35;;
74945;SDS011;63509;45.250;38.102;2023-03-30T09:02:19;6.53;;;1.20;;
74945;SDS011;63509;45.250;38.102;2023-03-30T09:08:16;2.00;;;1.10;;
74945;SDS011;63509;45.250;38.102;2023-03-30T09:10:57;2.25;;;1.27;;
74945;SDS011;63509;45.250;38.102;2023-03-30T09:13:27;2.97;;;1.33;;
74945;SDS011;63509;45.250;38.102;2023-03-30T09:18:43;2.42;;;1.30;;
74945;SDS011;63509;45.250;38.102;2023-03-30T09:21:11;3.28;;;1.45;;
74945;SDS011;63509;45.250;38.102;2023-03-30T09:23:38;2.70;;;1.20;;
74945;SDS011;63509;45.250;38.102;2023-03-30T09:26:17;2.00;;;1.00;;
74945;SDS011;63509;45.250;38.102;2023-03-30T09:31:33;4.00;;;0.82;;
74945;SDS011;63509;45.250;38.102;2023-03-30T09:36:57;2.47;;;1.15;;
74945;SDS011;63509;45.250;38.102;2023-03-30T09:39:30;3.30;;;1.25;;
74945;SDS011;63509;45.250;38.102;2023-03-30T09:42:11;2.75;;;1.00;;
74945;SDS011;63509;45.250;38.102;2023-03-30T09:45:08;4.63;;;1.30;;
74945;SDS011;63509;45.250;38.102;2023-03-30T09:47:40;1.75;;;1.02;;
74945;SDS011;63509;45.250;38.102;2023-03-30T09:50:25;3.08;;;1.30;;
74945;SDS011;63509;45.250;38.102;2023-03-30T09:52:55;2.42;;;1.25;;
74945;SDS011;63509;45.250;38.102;2023-03-30T09:55:28;3.10;;;1.30;;
74945;SDS011;63509;45.250;38.102;2023-03-30T09:58:08;3.22;;;0.90;;
74945;SDS011;63509;45.250;38.102;2023-03-30T10:00:46;2.10;;;1.25;;
74945;SDS011;63509;45.250;38.102;2023-03-30T10:03:30;2.20;;;1.10;;
74945;SDS011;63509;45.250;38.102;2023-03-30T10:05:59;4.55;;;1.70;;
74945;SDS011;63509;45.250;38.102;2023-03-30T10:08:28;3.50;;;0.93;;
74945;SDS011;63509;45.250;38.102;2023-03-30T10:10:55;5.50;;;1.40;;
74945;SDS011;63509;45.250;38.102;2023-03-30T10:13:56;7.60;;;1.63;;
74945;SDS011;63509;45.250;38.102;2023-03-30T10:18:54;3.58;;;1.48;;
74945;SDS011;63509;45.250;38.102;2023-03-30T10:21:28;2.63;;;1.23;;
74945;SDS011;63509;45.250;38.102;2023-03-30T10:24:01;3.22;;;1.52;;
74945;SDS011;63509;45.250;38.102;2023-03-30T10:26:34;5.75;;;1.95;;
74945;SDS011;63509;45.250;38.102;2023-03-30T10:29:09;4.15;;;1.83;;
74945;SDS011;63509;45.250;38.102;2023-03-30T10:31:38;10.60;;;1.90;;
74945;SDS011;63509;45.250;38.102;2023-03-30T10:34:16;5.15;;;1.00;;
74945;SDS011;63509;45.250;38.102;2023-03-30T10:36:46;3.85;;;1.42;;
74945;SDS011;63509;45.250;38.102;2023-03-30T10:41:44;3.67;;;1.40;;
74945;SDS011;63509;45.250;38.102;2023-03-30T10:44:25;5.07;;;2.00;;
74945;SDS011;63509;45.250;38.102;2023-03-30T10:53:03;2.95;;;1.17;;
74945;SDS011;63509;45.250;38.102;2023-03-30T11:03:43;2.33;;;0.95;;
74945;SDS011;63509;45.250;38.102;2023-03-30T11:06:17;3.75;;;1.60;;
74945;SDS011;63509;45.250;38.102;2023-03-30T11:08:54;2.83;;;1.17;;
74945;SDS011;63509;45.250;38.102;2023-03-30T11:11:30;2.78;;;1.23;;
74945;SDS011;63509;45.250;38.102;2023-03-30T11:20:01;5.47;;;1.80;;
74945;SDS011;63509;45.250;38.102;2023-03-30T11:23:12;9.43;;;1.42;;
74945;SDS011;63509;45.250;38.102;2023-03-30T11:25:57;2.97;;;1.10;;
74945;SDS011;63509;45.250;38.102;2023-03-30T11:28:31;5.13;;;1.85;;
74945;SDS011;63509;45.250;38.102;2023-03-30T11:31:25;3.03;;;1.23;;
74945;SDS011;63509;45.250;38.102;2023-03-30T11:39:54;4.22;;;2.20;;
74945;SDS011;63509;45.250;38.102;2023-03-30T11:42:30;2.90;;;1.58;;
74945;SDS011;63509;45.250;38.102;2023-03-30T11:44:56;3.35;;;1.38;;
74945;SDS011;63509;45.250;38.102;2023-03-30T11:47:57;2.92;;;1.52;;
74945;SDS011;63509;45.250;38.102;2023-03-30T11:56:12;6.35;;;1.33;;
74945;SDS011;63509;45.250;38.102;2023-03-30T11:58:51;3.83;;;1.60;;
74945;SDS011;63509;45.250;38.102;2023-03-30T12:01:27;3.55;;;1.63;;
74945;SDS011;63509;45.250;38.102;2023-03-30T12:04:02;8.10;;;1.73;;
74945;SDS011;63509;45.250;38.102;2023-03-30T12:06:37;3.67;;;1.70;;
74945;SDS011;63509;45.250;38.102;2023-03-30T12:09:26;5.57;;;1.60;;
74945;SDS011;63509;45.250;38.102;2023-03-30T12:17:38;3.10;;;1.20;;
74945;SDS011;63509;45.250;38.102;2023-03-30T12:28:22;3.15;;;1.27;;
74945;SDS011;63509;45.250;38.102;2023-03-30T12:30:57;2.65;;;1.13;;
74945;SDS011;63509;45.250;38.102;2023-03-30T12:34:07;2.03;;;0.90;;
74945;SDS011;63509;45.250;38.102;2023-03-30T12:36:22;3.78;;;1.60;;
74945;SDS011;63509;45.250;38.102;2023-03-30T12:39:21;8.77;;;1.42;;
74945;SDS011;63509;45.250;38.102;2023-03-30T12:42:02;2.03;;;0.98;;
74945;SDS011;63509;45.250;38.102;2023-03-30T13:04:05;2.50;;;1.35;;
74945;SDS011;63509;45.250;38.102;2023-03-30T13:06:40;4.38;;;1.77;;
74945;SDS011;63509;45.250;38.102;2023-03-30T13:22:03;2.67;;;1.35;;
74945;SDS011;63509;45.250;38.102;2023-03-30T13:29:52;3.22;;;1.35;;
74945;SDS011;63509;45.250;38.102;2023-03-30T13:38:06;3.13;;;1.35;;
74945;SDS011;63509;45.250;38.102;2023-03-30T13:41:05;4.35;;;1.35;;
74945;SDS011;63509;45.250;38.102;2023-03-30T13:43:39;5.80;;;1.85;;
74945;SDS011;63509;45.250;38.102;2023-03-30T13:51:18;2.53;;;1.55;;
74945;SDS011;63509;45.250;38.102;2023-03-30T13:53:49;2.65;;;1.23;;
74945;SDS011;63509;45.250;38.102;2023-03-30T13:56:18;4.45;;;1.48;;
74945;SDS011;63509;45.250;38.102;2023-03-30T14:01:32;6.88;;;1.50;;
74945;SDS011;63509;45.250;38.102;2023-03-30T14:04:00;5.30;;;1.70;;
74945;SDS011;63509;45.250;38.102;2023-03-30T14:06:30;3.35;;;1.45;;
74945;SDS011;63509;45.250;38.102;2023-03-30T14:14:16;4.10;;;1.40;;
74945;SDS011;63509;45.250;38.102;2023-03-30T14:16:53;6.13;;;1.45;;
74945;SDS011;63509;45.250;38.102;2023-03-30T14:19:25;2.78;;;1.20;;
74945;SDS011;63509;45.250;38.102;2023-03-30T14:22:01;3.47;;;1.35;;
74945;SDS011;63509;45.250;38.102;2023-03-30T14:24:54;3.28;;;1.60;;
74945;SDS011;63509;45.250;38.102;2023-03-30T14:27:24;5.57;;;2.03;;
74945;SDS011;63509;45.250;38.102;2023-03-30T14:29:56;4.38;;;1.85;;
74945;SDS011;63509;45.250;38.102;2023-03-30T14:32:22;2.92;;;1.25;;
74945;SDS011;63509;45.250;38.102;2023-03-30T14:34:51;2.90;;;1.40;;
74945;SDS011;63509;45.250;38.102;2023-03-30T14:37:19;5.03;;;1.58;;
74945;SDS011;63509;45.250;38.102;2023-03-30T14:39:53;9.13;;;1.67;;
74945;SDS011;63509;45.250;38.102;2023-03-30T14:42:30;2.70;;;1.40;;
74945;SDS011;63509;45.250;38.102;2023-03-30T14:45:00;2.50;;;1.10;;
74945;SDS011;63509;45.250;38.102;2023-03-30T14:47:27;4.15;;;1.48;;
74945;SDS011;63509;45.250;38.102;2023-03-30T14:49:54;4.40;;;2.35;;
74945;SDS011;63509;45.250;38.102;2023-03-30T14:52:26;4.20;;;1.48;;
74945;SDS011;63509;45.250;38.102;2023-03-30T14:54:57;3.85;;;1.70;;
74945;SDS011;63509;45.250;38.102;2023-03-30T14:57:24;4.45;;;1.75;;
74945;SDS011;63509;45.250;38.102;2023-03-30T15:00:00;3.80;;;1.95;;
74945;SDS011;63509;45.250;38.102;2023-03-30T15:02:41;3.33;;;1.38;;
74945;SDS011;63509;45.250;38.102;2023-03-30T15:05:08;4.80;;;1.48;;
74945;SDS011;63509;45.250;38.102;2023-03-30T15:07:35;2.92;;;1.30;;
74945;SDS011;63509;45.250;38.102;2023-03-30T15:10:02;3.33;;;1.75;;
74945;SDS011;63509;45.250;38.102;2023-03-30T15:12:31;6.72;;;2.35;;
74945;SDS011;63509;45.250;38.102;2023-03-30T15:15:02;4.85;;;1.65;;
74945;SDS011;63509;45.250;38.102;2023-03-30T15:17:34;3.10;;;1.70;;
74945;SDS011;63509;45.250;38.102;2023-03-30T15:20:03;4.40;;;2.25;;
74945;SDS011;63509;45.250;38.102;2023-03-30T15:22:34;7.38;;;1.77;;
74945;SDS011;63509;45.250;38.102;2023-03-30T15:25:15;3.88;;;1.83;;
74945;SDS011;63509;45.250;38.102;2023-03-30T15:27:46;6.95;;;2.22;;
74945;SDS011;63509;45.250;38.102;2023-03-30T15:30:38;4.45;;;2.15;;
74945;SDS011;63509;45.250;38.102;2023-03-30T15:33:22;4.30;;;2.05;;
74945;SDS011;63509;45.250;38.102;2023-03-30T15:36:05;4.35;;;2.92;;
74945;SDS011;63509;45.250;38.102;2023-03-30T15:38:41;8.10;;;4.20;;
74945;SDS011;63509;45.250;38.102;2023-03-30T15:41:14;13.57;;;4.03;;
74945;SDS011;63509;45.250;38.102;2023-03-30T15:46:41;9.57;;;4.38;;
74945;SDS011;63509;45.250;38.102;2023-03-30T15:49:11;12.73;;;5.18;;
74945;SDS011;63509;45.250;38.102;2023-03-30T15:51:43;16.20;;;7.20;;
74945;SDS011;63509;45.250;38.102;2023-03-30T15:56:52;13.48;;;6.45;;
74945;SDS011;63509;45.250;38.102;2023-03-30T15:59:36;13.63;;;6.00;;
74945;SDS011;63509;45.250;38.102;2023-03-30T16:04:41;11.57;;;5.53;;
74945;SDS011;63509;45.250;38.102;2023-03-30T16:07:17;5.88;;;2.45;;
74945;SDS011;63509;45.250;38.102;2023-03-30T16:09:45;5.80;;;2.70;;
74945;SDS011;63509;45.250;38.102;2023-03-30T16:12:13;3.78;;;2.03;;
74945;SDS011;63509;45.250;38.102;2023-03-30T16:14:42;3.35;;;2.00;;
74945;SDS011;63509;45.250;38.102;2023-03-30T16:17:09;4.07;;;2.05;;
74945;SDS011;63509;45.250;38.102;2023-03-30T16:19:38;5.70;;;2.40;;
74945;SDS011;63509;45.250;38.102;2023-03-30T16:22:06;4.90;;;3.15;;
74945;SDS011;63509;45.250;38.102;2023-03-30T16:24:33;4.18;;;2.15;;
74945;SDS011;63509;45.250;38.102;2023-03-30T16:26:59;7.18;;;2.88;;
74945;SDS011;63509;45.250;38.102;2023-03-30T16:29:26;7.95;;;4.57;;
74945;SDS011;63509;45.250;38.102;2023-03-30T16:31:52;11.60;;;5.80;;
74945;SDS011;63509;45.250;38.102;2023-03-30T16:34:19;22.77;;;6.15;;
74945;SDS011;63509;45.250;38.102;2023-03-30T16:36:46;12.20;;;4.90;;
74945;SDS011;63509;45.250;38.102;2023-03-30T16:39:15;12.00;;;5.00;;
74945;SDS011;63509;45.250;38.102;2023-03-30T16:41:43;8.63;;;3.60;;
74945;SDS011;63509;45.250;38.102;2023-03-30T16:44:10;5.75;;;3.05;;
74945;SDS011;63509;45.250;38.102;2023-03-30T16:46:36;5.18;;;2.28;;
74945;SDS011;63509;45.250;38.102;2023-03-30T16:49:02;4.57;;;3.03;;
74945;SDS011;63509;45.250;38.102;2023-03-30T16:51:29;12.60;;;2.95;;
74945;SDS011;63509;45.250;38.102;2023-03-30T16:53:56;14.07;;;3.08;;
74945;SDS011;63509;45.250;38.102;2023-03-30T16:56:22;7.20;;;2.40;;
74945;SDS011;63509;45.250;38.102;2023-03-30T16:58:48;12.10;;;2.53;;
74945;SDS011;63509;45.250;38.102;2023-03-30T17:01:16;28.00;;;3.15;;
74945;SDS011;63509;45.250;38.102;2023-03-30T17:03:42;8.80;;;2.47;;
74945;SDS011;63509;45.250;38.102;2023-03-30T17:06:10;5.07;;;2.55;;
74945;SDS011;63509;45.250;38.102;2023-03-30T17:08:36;26.98;;;2.83;;
74945;SDS011;63509;45.250;38.102;2023-03-30T17:11:02;12.77;;;3.30;;
74945;SDS011;63509;45.250;38.102;2023-03-30T17:13:29;15.60;;;2.08;;
74945;SDS011;63509;45.250;38.102;2023-03-30T17:15:56;8.32;;;1.60;;
74945;SDS011;63509;45.250;38.102;2023-03-30T17:18:24;9.70;;;2.83;;
74945;SDS011;63509;45.250;38.102;2023-03-30T17:32:59;9.68;;;3.70;;
74945;SDS011;63509;45.250;38.102;2023-03-30T17:35:26;17.52;;;2.85;;
74945;SDS011;63509;45.250;38.102;2023-03-30T17:37:52;6.63;;;2.45;;
74945;SDS011;63509;45.250;38.102;2023-03-30T17:40:21;27.10;;;4.28;;
74945;SDS011;63509;45.250;38.102;2023-03-30T17:42:52;9.45;;;1.95;;
74945;SDS011;63509;45.250;38.102;2023-03-30T17:45:20;26.50;;;3.15;;
74945;SDS011;63509;45.250;38.102;2023-03-30T17:47:51;4.45;;;2.10;;
74945;SDS011;63509;45.250;38.102;2023-03-30T17:50:25;5.45;;;1.88;;
74945;SDS011;63509;45.250;38.102;2023-03-30T17:52:56;3.75;;;1.90;;
74945;SDS011;63509;45.250;38.102;2023-03-30T17:55:24;4.85;;;2.13;;
74945;SDS011;63509;45.250;38.102;2023-03-30T17:57:54;5.18;;;1.85;;
74945;SDS011;63509;45.250;38.102;2023-03-30T18:02:49;5.18;;;1.75;;
74945;SDS011;63509;45.250;38.102;2023-03-30T18:05:16;3.53;;;1.60;;
74945;SDS011;63509;45.250;38.102;2023-03-30T18:07:44;16.58;;;3.03;;
74945;SDS011;63509;45.250;38.102;2023-03-30T18:10:16;6.53;;;1.73;;
74945;SDS011;63509;45.250;38.102;2023-03-30T18:12:45;7.03;;;2.60;;
74945;SDS011;63509;45.250;38.102;2023-03-30T18:15:11;7.97;;;2.50;;
74945;SDS011;63509;45.250;38.102;2023-03-30T18:17:46;15.85;;;2.80;;
74945;SDS011;63509;45.250;38.102;2023-03-30T18:20:15;22.85;;;2.40;;
74945;SDS011;63509;45.250;38.102;2023-03-30T18:22:48;6.63;;;2.67;;
74945;SDS011;63509;45.250;38.102;2023-03-30T18:25:14;15.43;;;2.70;;
74945;SDS011;63509;45.250;38.102;2023-03-30T18:27:42;5.43;;;2.47;;